Aérodrome :
LOGIN :

S'inscrire | Disclaimer

   EN    FR    IT 

 










Légende :    VFR   VFR Marginal   IFR   IFR Intensif   IFR Très Intensif
Visi : 
Plafond : 
>= 8 km
>= 3000ft
5 à 8 km
1000 à 3000 ft
1500m à 5 km
500 à 1000 ft
800 à 1500m
200 à 500 ft
< 800m
< 200 ft
Symboles :   Orages  Brouillard  Fortes neiges  Fortes précipitations  Vent > 20 kt
SIGMETs :   Divers  Orages  Givrage  Turbulence  Onde Orograph.  Cendres Volcan.






- Altitude de l'aérodrome : 83 ft
- Code IATA : LHR


EGLL - London Heathrow

DERNIER METAR :
  • 281250Z AUTO 18015KT 9999 -RA BKN010 OVC022 07/05 Q1003

METARs EXPIRÉS :
  • 281220Z AUTO 18016KT 7000 -RA BKN010 OVC017 07/05 Q1004 TEMPO 4000 RA BKN009
  • 281150Z AUTO 18016KT 9999 -RA BKN011 OVC020 06/05 Q1005 TEMPO 4000 RA BKN009
  • 281120Z AUTO 17014KT 7000 -RA BKN012/// OVC042/// //////TCU 06/04 Q1006
  • 281050Z AUTO 17014KT 9999 -RA BKN013/// OVC021/// //////CB 06/04 Q1007 TEMPO 4000 RA
  • 281020Z AUTO 17014KT 9999 -RA BKN013 OVC018 06/04 Q1008 TEMPO 4000 RA BKN012
  • 280950Z AUTO 17012KT 9999 -RA BKN015/// OVC032/// //////TCU 06/03 Q1008 TEMPO 4000 RA BKN012

TAF TAF EGLL
Valide du 28 à 12h jusqu'au 29 à 18h UTC


281057Z 2812/2918 17015G25KT 9999 -RA BKN016
TEMPO 2812/2814 4000 RA BKN010
BECMG 2814/2817 21012KT BKN010
PROB40
TEMPO 2814/2820 3500 RADZ BKN006
BECMG 2817/2820 22018G28KT BKN018
PROB30
TEMPO 2820/2905 6000 -RADZ BKN012
BECMG 2902/2905 19022G35KT
TEMPO 2905/2909 6000 RA BKN012
BECMG 2907/2909 26014KT
PROB30
TEMPO 2907/2909 2500 +RA
TEMPO 2911/2918 24019G30KT
PROB30
TEMPO 2913/2918 3500 +SHRA SHGS



MET'MAP, la Météo Aéronautique d'un coup d'oeil ! - Copyright ORBIFLY Décembre 2007 - Disclaimer

ORBIFLY MET'MAP TEAM :

Programmation & Développement : Alexandra Zaïnal
Sur une idée originale de : Baudouin d'Aumeries
Assistance à la programmation : Marc-Olivier Méhu
Soutien technique & logistique : Manuel Goepfert

Contact : metmap@orbifly.com




SOURCES & CREDITS :

   NOAA